Madawaska, Maine
Current Conditions -  °F | °C
As of 9:25 AM on Wednesday 28 Jan 2015 (Local Time) from KFVE Reporting Station
Light Snow Light Snow  
Wind Chill: -16°   Ceiling: 7500
Heat Index:   Visibility: 3mi
Dew Point:   Wind: 24mph
Humidity: 76%   Direction: 330°NNW
Pressure: 29.85"   Gusts: NA
Location:  47.36°N, 68.32°W
Report Text: KFVE 281425Z AUTO 33021KT 3SM -SN SCT022 OVC075 M14/M18 A2985 RMK AO2 P0000 T11441178
Loading
Personal Weather Stations






























Interactive Weather Map New forecast layout! Learn more

10-Day Weather Forecast

Advertisements
Track Severe Weather on mobile